TimeCDT,TemperatureF,Dew PointF,Humidity,Sea Level PressureIn,VisibilityMPH,Wind Direction,Wind SpeedMPH,Gust SpeedMPH,PrecipitationIn,Events,Conditions,WindDirDegrees,DateUTC
12:55 AM,42.1,41.0,96,30.13,10.0,NNW,5.8,-,N/A,,Clear,330,2013-05-23 05:55:00
1:55 AM,41.0,41.0,100,30.15,10.0,NNW,5.8,-,N/A,,Clear,330,2013-05-23 06:55:00
2:55 AM,41.0,41.0,100,30.17,10.0,Calm,Calm,-,N/A,,Clear,0,2013-05-23 07:55:00
3:55 AM,39.0,37.9,96,30.19,2.0,Calm,Calm,-,N/A,,Clear,0,2013-05-23 08:55:00
4:09 AM,39.2,39.2,100,30.16,6.0,Calm,Calm,-,N/A,,Clear,0,2013-05-23 09:09:00
4:44 AM,41.0,41.0,100,30.18,2.5,NE,3.5,-,N/A,,Clear,50,2013-05-23 09:44:00
4:55 AM,39.9,39.9,100,30.21,1.0,Calm,Calm,-,N/A,,Clear,0,2013-05-23 09:55:00
4:59 AM,37.4,37.4,100,30.18,0.8,Calm,Calm,-,N/A,,Mist,0,2013-05-23 09:59:00
5:20 AM,37.4,37.4,100,30.19,1.0,WNW,5.8,-,N/A,,Mist,290,2013-05-23 10:20:00
5:31 AM,37.4,37.4,100,30.19,3.0,WNW,4.6,-,N/A,,Mostly Cloudy,300,2013-05-23 10:31:00
5:39 AM,37.4,37.4,100,30.20,1.8,WNW,4.6,-,N/A,,Mostly Cloudy,300,2013-05-23 10:39:00
5:47 AM,37.4,37.4,100,30.20,0.2,WNW,3.5,-,N/A,Fog,Fog,300,2013-05-23 10:47:00
5:55 AM,37.0,37.0,100,30.22,0.2,WNW,3.5,-,N/A,Fog,Fog,290,2013-05-23 10:55:00
6:06 AM,37.4,37.4,100,30.20,0.8,NW,3.5,-,N/A,,Mist,310,2013-05-23 11:06:00
6:15 AM,37.4,37.4,100,30.20,1.0,NW,4.6,-,N/A,,Mist,310,2013-05-23 11:15:00
6:25 AM,37.4,37.4,100,30.20,1.8,NW,5.8,-,N/A,,Clear,320,2013-05-23 11:25:00
6:28 AM,37.4,37.4,100,30.21,3.0,NW,5.8,-,N/A,,Clear,310,2013-05-23 11:28:00
6:55 AM,42.1,41.0,96,30.24,9.0,NW,5.8,-,N/A,,Clear,320,2013-05-23 11:55:00
7:55 AM,48.0,46.0,93,30.25,10.0,NNW,4.6,-,N/A,,Clear,340,2013-05-23 12:55:00
8:55 AM,55.0,48.0,77,30.26,10.0,North,3.5,-,N/A,,Clear,360,2013-05-23 13:55:00
9:55 AM,57.0,46.9,69,30.27,10.0,East,6.9,-,N/A,,Clear,100,2013-05-23 14:55:00
10:55 AM,59.0,45.0,60,30.28,10.0,Variable,4.6,-,N/A,,Clear,0,2013-05-23 15:55:00
11:55 AM,62.1,46.0,56,30.28,10.0,ESE,5.8,-,N/A,,Clear,110,2013-05-23 16:55:00
12:55 PM,64.9,46.9,52,30.27,10.0,ESE,8.1,-,N/A,,Clear,110,2013-05-23 17:55:00
1:55 PM,66.0,46.9,50,30.26,10.0,ESE,8.1,-,N/A,,Clear,120,2013-05-23 18:55:00
2:55 PM,66.0,45.0,47,30.24,10.0,East,10.4,-,N/A,,Clear,90,2013-05-23 19:55:00
3:55 PM,66.9,48.0,51,30.24,10.0,East,10.4,18.4,N/A,,Scattered Clouds,90,2013-05-23 20:55:00
4:55 PM,66.9,46.0,47,30.23,10.0,SE,10.4,-,N/A,,Clear,130,2013-05-23 21:55:00
5:55 PM,66.9,45.0,45,30.23,10.0,ESE,10.4,-,N/A,,Clear,110,2013-05-23 22:55:00
6:55 PM,64.0,45.0,50,30.22,10.0,ESE,13.8,-,N/A,,Clear,110,2013-05-23 23:55:00
7:55 PM,63.0,45.0,52,30.21,10.0,ESE,10.4,-,N/A,,Clear,110,2013-05-24 00:55:00
8:55 PM,57.9,46.0,65,30.22,10.0,ESE,5.8,-,N/A,,Clear,110,2013-05-24 01:55:00
9:55 PM,53.1,45.0,74,30.24,10.0,East,6.9,-,N/A,,Clear,100,2013-05-24 02:55:00
10:55 PM,53.1,42.1,66,30.24,10.0,ESE,9.2,-,N/A,,Clear,110,2013-05-24 03:55:00
11:55 PM,53.1,37.9,57,30.24,10.0,ESE,10.4,-,N/A,,Clear,120,2013-05-24 04:55:00